Time;durP1;ratioP1;P1;durP2;ratioP2;P2;SDS_P1;SDS_P2;PMS_P1;PMS_P2;Temp;Humidity;BMP_temperature;BMP_pressure;BME280_temperature;BME280_humidity;BME280_pressure;Samples;Min_cycle;Max_cycle;Signal;HPM_P1;HPM_P2
2023/04/10 00:01:44;;;;;;;24.63;19.83;;;;;;;5.86;77.45;101739.66;5115897;28;20181;-70
2023/04/10 00:04:11;;;;;;;26.07;19.20;;;;;;;5.82;77.85;101738.06;5115741;28;20362;-69
2023/04/10 00:06:39;;;;;;;25.37;18.90;;;;;;;5.82;78.09;101730.09;5115786;28;20217;-69
2023/04/10 00:09:06;;;;;;;21.10;17.90;;;;;;;5.81;78.04;101732.78;5115739;28;20230;-69
2023/04/10 00:11:32;;;;;;;25.83;19.20;;;;;;;5.83;78.24;101725.63;5115957;28;20695;-69
2023/04/10 00:13:59;;;;;;;25.40;19.57;;;;;;;5.74;79.03;101721.50;5116165;28;20215;-69
2023/04/10 00:16:25;;;;;;;24.07;18.93;;;;;;;5.77;78.99;101721.41;5115670;28;20199;-69
2023/04/10 00:18:51;;;;;;;29.73;20.10;;;;;;;5.76;79.00;101712.56;5115837;28;20213;-70
2023/04/10 00:21:18;;;;;;;31.90;20.53;;;;;;;5.72;79.23;101712.72;5115478;28;20196;-70
2023/04/10 00:23:44;;;;;;;30.50;19.67;;;;;;;5.71;79.25;101705.69;5115639;28;20212;-69
2023/04/10 00:26:11;;;;;;;37.70;21.13;;;;;;;5.74;79.49;101702.91;5115489;28;20655;-69
2023/04/10 00:28:39;;;;;;;29.80;20.83;;;;;;;5.69;79.38;101697.75;5097064;28;20212;-69
2023/04/10 00:31:05;;;;;;;28.87;20.87;;;;;;;5.69;78.70;101692.44;5097049;28;20189;-69
2023/04/10 00:33:32;;;;;;;29.13;19.63;;;;;;;5.63;78.72;101689.16;5115208;28;20547;-68
2023/04/10 00:35:58;;;;;;;39.87;20.43;;;;;;;5.67;78.52;101693.41;5115502;28;20181;-69
2023/04/10 00:38:25;;;;;;;40.00;21.07;;;;;;;5.71;78.31;101679.97;5096870;28;20189;-69
2023/04/10 00:40:51;;;;;;;53.23;20.97;;;;;;;5.71;77.88;101687.06;5115151;28;20184;-69
2023/04/10 00:43:19;;;;;;;47.53;21.10;;;;;;;5.74;77.93;101682.50;5115002;28;20187;-69
2023/04/10 00:45:45;;;;;;;46.13;23.43;;;;;;;5.79;77.77;101684.13;5096756;28;20284;-69
2023/04/10 00:48:14;;;;;;;48.60;23.77;;;;;;;5.79;77.53;101682.34;5096081;28;20213;-69
2023/04/10 00:50:42;;;;;;;60.90;22.77;;;;;;;5.83;77.71;101681.31;5096710;28;20200;-69
2023/04/10 00:53:08;;;;;;;59.53;21.30;;;;;;;5.81;77.69;101677.84;5114889;28;20192;-69
2023/04/10 00:55:35;;;;;;;34.63;21.83;;;;;;;5.80;78.21;101673.44;5114765;28;20288;-69
2023/04/10 00:58:02;;;;;;;48.47;20.97;;;;;;;5.80;78.58;101676.13;5096563;28;20285;-69
2023/04/10 01:00:29;;;;;;;40.43;20.77;;;;;;;5.79;78.69;101679.69;5096468;28;20221;-69
2023/04/10 01:02:56;;;;;;;36.03;20.63;;;;;;;5.81;78.91;101672.53;5096390;28;20690;-69
2023/04/10 01:05:25;;;;;;;41.40;21.47;;;;;;;5.83;78.89;101672.47;5114869;28;20683;-69
2023/04/10 01:08:11;;;;;;;33.53;21.73;;;;;;;5.77;78.93;101678.88;5079569;28;20709;-69
2023/04/10 01:10:52;;;;;;;29.93;20.87;;;;;;;5.72;78.15;101678.16;5114881;28;20177;-69
2023/04/10 01:13:26;;;;;;;34.60;21.03;;;;;;;5.72;78.03;101679.06;5096172;28;20280;-69
2023/04/10 01:16:04;;;;;;;30.73;22.07;;;;;;;5.69;77.68;101680.94;5115062;28;20685;-70
2023/04/10 01:18:40;;;;;;;27.53;20.97;;;;;;;5.68;77.09;101677.41;5114735;28;20169;-70
2023/04/10 01:21:10;;;;;;;33.90;22.80;;;;;;;5.72;76.53;101673.75;5114689;28;20191;-70
2023/04/10 01:24:17;;;;;;;34.43;21.97;;;;;;;5.60;76.18;101666.19;5114509;28;20210;-69
2023/04/10 01:27:02;;;;;;;36.77;22.83;;;;;;;5.61;76.06;101667.94;5096073;28;20287;-69
2023/04/10 01:29:33;;;;;;;31.17;22.03;;;;;;;5.60;76.12;101652.03;5096020;28;20620;-70
2023/04/10 01:32:21;;;;;;;32.30;22.67;;;;;;;5.61;75.95;101651.13;5096316;28;20196;-70
2023/04/10 01:34:53;;;;;;;33.03;23.43;;;;;;;5.59;75.89;101643.22;5095839;28;20228;-69
2023/04/10 01:37:22;;;;;;;29.83;21.53;;;;;;;5.55;75.78;101641.56;5095886;28;20193;-69
2023/04/10 01:39:53;;;;;;;31.80;21.63;;;;;;;5.52;75.88;101639.91;5114067;28;20185;-69
2023/04/10 01:42:22;;;;;;;35.53;22.30;;;;;;;5.56;76.23;101638.00;5114317;28;20177;-69
2023/04/10 01:44:51;;;;;;;28.30;21.07;;;;;;;5.58;76.26;101640.59;5095679;28;20241;-69
2023/04/10 01:47:18;;;;;;;32.83;21.53;;;;;;;5.59;76.41;101632.56;5113946;28;20254;-69
2023/04/10 01:49:46;;;;;;;31.70;21.80;;;;;;;5.54;76.40;101630.09;5095731;28;20280;-69
2023/04/10 01:52:14;;;;;;;35.57;23.83;;;;;;;5.49;76.54;101620.56;5095642;28;20186;-69
2023/04/10 01:54:47;;;;;;;32.70;22.37;;;;;;;5.46;76.71;101632.16;5096053;28;20221;-69
2023/04/10 01:57:20;;;;;;;37.40;22.73;;;;;;;5.45;76.74;101635.72;5096132;28;20201;-69
2023/04/10 01:59:57;;;;;;;32.70;22.57;;;;;;;5.46;76.34;101628.63;5094716;28;20547;-69
2023/04/10 02:02:24;;;;;;;31.23;21.77;;;;;;;5.45;76.34;101633.06;5095841;28;20193;-69
2023/04/10 02:04:50;;;;;;;34.53;24.17;;;;;;;5.44;76.18;101634.00;5113708;28;20242;-69
2023/04/10 02:07:25;;;;;;;31.43;22.27;;;;;;;5.44;75.75;101625.19;5095502;28;20227;-69
2023/04/10 02:10:03;;;;;;;31.50;20.70;;;;;;;5.41;75.99;101633.22;5095727;28;20180;-69
2023/04/10 02:12:37;;;;;;;34.00;22.80;;;;;;;5.37;75.83;101629.84;5095394;28;20188;-69
2023/04/10 02:15:07;;;;;;;28.30;22.30;;;;;;;5.27;76.10;101628.44;5113758;28;20207;-69
2023/04/10 02:17:35;;;;;;;30.93;21.57;;;;;;;5.23;75.98;101629.44;5095417;28;20193;-69
2023/04/10 02:20:03;;;;;;;34.30;21.63;;;;;;;5.18;76.17;101621.66;5114132;28;20184;-69
2023/04/10 02:22:30;;;;;;;36.40;22.37;;;;;;;5.14;76.75;101616.50;5113529;28;20181;-69
2023/04/10 02:24:57;;;;;;;29.70;23.07;;;;;;;5.11;76.89;101615.66;5095289;28;20217;-69
2023/04/10 02:27:29;;;;;;;35.47;22.90;;;;;;;5.10;76.59;101611.28;5095200;28;20215;-69
2023/04/10 02:29:57;;;;;;;39.07;22.60;;;;;;;5.09;76.77;101606.88;5114131;28;20161;-69
2023/04/10 02:32:26;;;;;;;45.60;23.93;;;;;;;5.05;77.54;101610.59;5096136;28;20189;-69
2023/04/10 02:34:52;;;;;;;47.17;23.40;;;;;;;5.08;77.98;101606.97;5095141;28;20217;-69
2023/04/10 02:37:18;;;;;;;43.97;23.27;;;;;;;5.06;78.94;101606.16;5095228;28;20225;-69
2023/04/10 02:39:45;;;;;;;47.13;23.30;;;;;;;5.08;78.75;101610.47;5113440;28;20177;-69
2023/04/10 02:42:12;;;;;;;37.83;23.27;;;;;;;5.11;78.72;101607.72;5095202;28;20730;-69
2023/04/10 02:44:39;;;;;;;34.60;22.47;;;;;;;5.10;78.61;101602.47;5095332;28;20586;-69
2023/04/10 02:47:06;;;;;;;46.20;23.00;;;;;;;5.09;78.79;101609.53;5095094;28;20220;-69
2023/04/10 02:49:34;;;;;;;39.77;23.10;;;;;;;5.06;78.75;101612.31;5095098;28;20631;-69
2023/04/10 02:52:07;;;;;;;43.23;22.70;;;;;;;5.06;79.43;101619.41;5095364;28;20212;-69
2023/04/10 02:54:39;;;;;;;37.37;23.20;;;;;;;5.05;79.32;101610.59;5095009;28;20212;-69
2023/04/10 02:57:05;;;;;;;34.73;22.87;;;;;;;5.04;79.22;101614.16;5095584;28;20196;-69
2023/04/10 02:59:32;;;;;;;40.53;23.30;;;;;;;5.03;79.54;101615.09;5095043;28;20201;-69
2023/04/10 03:02:00;;;;;;;37.40;23.10;;;;;;;4.96;78.98;101610.91;5094963;28;20197;-69
2023/04/10 03:04:33;;;;;;;41.43;24.17;;;;;;;4.96;79.54;101597.63;5095117;28;20578;-69
2023/04/10 03:06:59;;;;;;;46.47;24.53;;;;;;;5.03;79.25;101606.25;5094953;28;20189;-69
2023/04/10 03:09:26;;;;;;;51.87;23.60;;;;;;;5.02;79.29;101593.88;5113088;28;20209;-69
2023/04/10 03:11:53;;;;;;;44.27;24.50;;;;;;;5.01;79.73;101598.34;5098577;28;20199;-69
2023/04/10 03:14:19;;;;;;;47.40;23.80;;;;;;;5.03;79.84;101590.34;5098509;28;20552;-69
2023/04/10 03:16:46;;;;;;;50.80;23.67;;;;;;;4.98;79.42;101579.88;5098514;28;20237;-69
2023/04/10 03:19:13;;;;;;;47.93;22.53;;;;;;;4.96;79.63;101581.72;5098456;28;20659;-69
2023/04/10 03:21:39;;;;;;;49.73;23.17;;;;;;;4.95;79.57;101579.97;5098386;28;20208;-69
2023/04/10 03:24:05;;;;;;;45.27;23.23;;;;;;;4.92;80.37;101572.09;5116587;28;20633;-69
2023/04/10 03:26:32;;;;;;;37.07;23.57;;;;;;;4.93;80.68;101565.88;5098278;28;20208;-69
2023/04/10 03:28:59;;;;;;;40.87;22.87;;;;;;;4.91;80.84;101559.78;5117069;28;20227;-69
2023/04/10 03:31:26;;;;;;;39.57;23.13;;;;;;;4.98;81.28;101565.72;5098313;28;20243;-69
2023/04/10 03:33:56;;;;;;;36.47;23.53;;;;;;;4.95;81.13;101560.50;5098451;28;20213;-69
2023/04/10 03:36:23;;;;;;;32.73;21.77;;;;;;;4.96;81.64;101564.91;5098126;28;20550;-69
2023/04/10 03:38:51;;;;;;;35.57;23.37;;;;;;;4.96;81.56;101556.97;5098112;28;20224;-69
2023/04/10 03:41:17;;;;;;;37.40;21.83;;;;;;;4.98;81.97;101566.59;5116613;28;20259;-69
2023/04/10 03:43:44;;;;;;;36.67;22.77;;;;;;;5.02;81.88;101567.34;5097917;28;20209;-69
2023/04/10 03:46:11;;;;;;;43.80;24.50;;;;;;;5.00;82.38;101563.88;5098181;28;20742;-69
2023/04/10 03:48:43;;;;;;;41.57;21.87;;;;;;;5.03;81.95;101559.34;5097852;28;20580;-69
2023/04/10 03:51:09;;;;;;;37.10;22.33;;;;;;;5.07;82.21;101555.63;5097881;28;20224;-69
2023/04/10 03:53:36;;;;;;;45.43;23.13;;;;;;;5.05;82.14;101561.91;5098272;28;20220;-69
2023/04/10 03:56:07;;;;;;;49.10;21.30;;;;;;;5.08;81.67;101553.88;5098394;28;20652;-69
2023/04/10 03:58:34;;;;;;;40.67;22.87;;;;;;;5.13;81.39;101557.22;5097716;28;20181;-69
2023/04/10 04:01:01;;;;;;;52.57;20.93;;;;;;;5.18;81.37;101560.56;5097741;28;20188;-69
2023/04/10 04:03:34;;;;;;;66.87;23.57;;;;;;;5.18;80.74;101557.06;5098231;28;20589;-69
2023/04/10 04:06:24;;;;;;;69.90;22.50;;;;;;;5.26;80.49;101553.19;5097888;28;20189;-69
2023/04/10 04:09:09;;;;;;;55.03;21.03;;;;;;;5.19;80.58;101550.81;5116009;28;20203;-69
2023/04/10 04:11:43;;;;;;;59.27;22.20;;;;;;;5.21;81.07;101547.19;5097558;28;20578;-69
2023/04/10 04:14:28;;;;;;;36.53;19.33;;;;;;;5.20;80.63;101545.47;5116079;28;20261;-69
2023/04/10 04:17:10;;;;;;;42.00;20.47;;;;;;;5.15;80.66;101543.88;5097408;28;20186;-70
2023/04/10 04:19:54;;;;;;;27.87;20.10;;;;;;;5.13;80.80;101543.09;5115882;28;20268;-70
2023/04/10 04:22:56;;;;;;;47.50;19.37;;;;;;;5.10;80.95;101539.63;5032069;28;20269;-70
2023/04/10 04:25:41;;;;;;;29.37;20.17;;;;;;;5.14;81.03;101531.53;5109453;28;20563;-69
2023/04/10 04:28:40;;;;;;;36.63;20.60;;;;;;;5.05;81.10;101532.72;5081349;28;20799;-69
2023/04/10 04:31:15;;;;;;;60.23;21.70;;;;;;;5.10;81.13;101538.75;5115633;28;20530;-69
2023/04/10 04:34:07;;;;;;;28.10;19.57;;;;;;;5.11;81.35;101543.13;5097141;28;20591;-69
2023/04/10 04:36:34;;;;;;;37.50;21.30;;;;;;;5.06;81.48;101545.09;5115554;28;20193;-69
2023/04/10 04:39:39;;;;;;;31.77;19.27;;;;;;;5.10;81.75;101538.75;5032585;28;20198;-69
2023/04/10 04:42:16;;;;;;;25.67;18.53;;;;;;;5.06;81.15;101532.66;5033140;28;20692;-69
2023/04/10 04:45:13;;;;;;;28.37;18.90;;;;;;;5.09;80.79;101534.34;5081741;28;20679;-69
2023/04/10 04:47:57;;;;;;;30.00;18.73;;;;;;;5.09;79.91;101531.69;5115638;28;20654;-69
2023/04/10 04:50:29;;;;;;;33.53;18.23;;;;;;;5.07;79.65;101530.88;5096622;28;20213;-69
2023/04/10 04:53:09;;;;;;;28.00;18.17;;;;;;;5.06;79.13;101537.13;5096972;28;20195;-69
2023/04/10 04:55:45;;;;;;;24.50;18.33;;;;;;;5.11;77.71;101530.72;5097195;28;20763;-69
2023/04/10 04:58:31;;;;;;;27.37;16.90;;;;;;;5.20;78.01;101536.63;5096642;28;20273;-69
2023/04/10 05:01:18;;;;;;;21.17;17.37;;;;;;;5.16;77.44;101535.84;5083507;28;20220;-69
2023/04/10 05:04:04;;;;;;;30.23;17.80;;;;;;;5.18;77.31;101528.72;5096700;28;20253;-69
2023/04/10 05:06:42;;;;;;;23.63;16.23;;;;;;;5.23;77.49;101531.19;5096441;28;20209;-69
2023/04/10 05:09:27;;;;;;;28.20;15.93;;;;;;;5.30;77.55;101536.22;5096345;28;20235;-69
2023/04/10 05:12:32;;;;;;;27.90;16.40;;;;;;;5.32;77.71;101529.06;5051907;28;20329;-69
2023/04/10 05:15:03;;;;;;;21.43;16.03;;;;;;;5.35;77.37;101528.09;5051785;28;20238;-69
2023/04/10 05:17:41;;;;;;;23.27;15.83;;;;;;;5.41;77.42;101532.28;5070798;28;20284;-69
2023/04/10 05:20:16;;;;;;;19.37;15.97;;;;;;;5.44;76.57;101530.41;5096223;28;20181;-69
2023/04/10 05:22:57;;;;;;;23.07;15.70;;;;;;;5.44;76.75;101526.88;5096181;28;20208;-69
2023/04/10 05:25:34;;;;;;;20.27;15.97;;;;;;;5.45;76.29;101526.81;5095978;28;20240;-69
2023/04/10 05:28:07;;;;;;;20.67;15.13;;;;;;;5.46;76.15;101530.31;5097046;28;20604;-69
2023/04/10 05:30:58;;;;;;;18.53;15.20;;;;;;;5.47;76.00;101532.94;5096049;28;20181;-69
2023/04/10 05:33:36;;;;;;;21.70;15.57;;;;;;;5.50;75.77;101538.13;5114590;28;20212;-69
2023/04/10 05:36:09;;;;;;;24.67;16.40;;;;;;;5.60;75.06;101535.13;5095927;28;20272;-69
2023/04/10 05:38:50;;;;;;;33.70;17.33;;;;;;;5.62;75.60;101534.13;5114129;28;20173;-69
2023/04/10 05:41:35;;;;;;;24.27;15.37;;;;;;;5.60;75.61;101535.97;5096481;28;20181;-69
2023/04/10 05:44:18;;;;;;;25.97;15.33;;;;;;;5.54;77.30;101530.94;5095741;28;20224;-69
2023/04/10 05:47:13;;;;;;;17.63;14.67;;;;;;;5.64;75.96;101526.13;5058943;28;20202;-69
2023/04/10 05:49:58;;;;;;;17.27;14.70;;;;;;;5.81;74.44;101520.16;5114614;28;20215;-69
2023/04/10 05:52:49;;;;;;;18.13;15.10;;;;;;;5.98;73.54;101525.69;5095655;28;20205;-69
2023/04/10 05:55:40;;;;;;;18.00;14.50;;;;;;;6.14;72.60;101521.50;5096424;28;20614;-69
2023/04/10 05:58:37;;;;;;;16.30;14.67;;;;;;;6.27;73.05;101521.84;5114057;28;20579;-70
2023/04/10 06:01:15;;;;;;;18.07;14.33;;;;;;;6.47;71.45;101525.50;5114280;28;20619;-70
2023/04/10 06:03:56;;;;;;;21.53;13.80;;;;;;;6.65;70.31;101526.50;5095607;28;20216;-69
2023/04/10 06:06:25;;;;;;;18.97;14.00;;;;;;;6.82;70.07;101532.88;5095519;28;20250;-69
2023/04/10 06:08:51;;;;;;;28.13;14.33;;;;;;;7.05;68.84;101532.78;5095364;28;20209;-69
2023/04/10 06:11:18;;;;;;;15.77;14.07;;;;;;;7.28;69.93;101523.75;5113687;28;20654;-69
2023/04/10 06:13:49;;;;;;;19.67;12.37;;;;;;;7.52;68.66;101524.41;5096271;28;20577;-69
2023/04/10 06:16:16;;;;;;;17.13;13.07;;;;;;;7.73;67.38;101526.09;5095659;28;20649;-69
2023/04/10 06:18:45;;;;;;;14.03;12.77;;;;;;;7.96;66.37;101509.00;5096318;28;20225;-69
2023/04/10 06:21:11;;;;;;;12.97;11.87;;;;;;;8.13;64.80;101510.00;5095406;28;20291;-69
2023/04/10 06:23:38;;;;;;;12.93;11.70;;;;;;;8.25;64.21;101501.38;5095370;28;20281;-69
2023/04/10 06:26:04;;;;;;;15.27;11.33;;;;;;;8.42;63.58;101504.09;5095267;28;20284;-69
2023/04/10 06:28:31;;;;;;;12.63;11.40;;;;;;;8.51;64.49;101510.78;5113490;28;20185;-70
2023/04/10 06:31:02;;;;;;;11.93;11.07;;;;;;;8.62;63.95;101505.78;5096154;28;20627;-70
2023/04/10 06:33:35;;;;;;;12.27;11.07;;;;;;;8.70;63.00;101502.69;5095755;28;20203;-69
2023/04/10 06:36:03;;;;;;;12.63;11.43;;;;;;;8.85;61.72;101493.03;5095267;28;20218;-69
2023/04/10 06:38:36;;;;;;;11.33;10.33;;;;;;;8.92;61.71;101495.28;5096101;28;20566;-69
2023/04/10 06:41:06;;;;;;;10.07;9.43;;;;;;;9.03;60.03;101497.41;5095113;28;20686;-70
2023/04/10 06:43:33;;;;;;;10.77;9.97;;;;;;;9.12;60.33;101499.59;5113342;28;20185;-70
2023/04/10 06:46:00;;;;;;;9.83;9.30;;;;;;;9.26;59.48;101492.63;5115946;28;20204;-71
2023/04/10 06:48:27;;;;;;;9.20;8.60;;;;;;;9.40;59.32;101502.59;5117551;28;20677;-70
2023/04/10 06:50:53;;;;;;;10.00;9.37;;;;;;;9.58;56.70;101502.44;5117182;28;20208;-70
2023/04/10 06:53:19;;;;;;;9.93;9.23;;;;;;;9.75;56.96;101492.63;5117176;28;20192;-70
2023/04/10 06:55:46;;;;;;;9.30;8.80;;;;;;;9.97;56.29;101505.66;5117441;28;20262;-70
2023/04/10 06:58:13;;;;;;;9.10;8.67;;;;;;;10.13;54.82;101502.97;5117105;28;20208;-70
2023/04/10 07:00:40;;;;;;;10.27;9.67;;;;;;;10.39;54.00;101505.03;5117202;28;20178;-70
2023/04/10 07:03:06;;;;;;;9.93;9.47;;;;;;;10.61;51.95;101503.75;5117012;28;20610;-70
2023/04/10 07:05:32;;;;;;;11.53;10.73;;;;;;;10.83;52.91;101495.28;5116733;28;20250;-69
2023/04/10 07:07:59;;;;;;;9.33;8.77;;;;;;;11.02;51.07;101490.53;5117164;28;20186;-70
2023/04/10 07:10:25;;;;;;;8.57;8.10;;;;;;;11.21;52.62;101484.88;5117420;28;20203;-69
2023/04/10 07:12:52;;;;;;;8.83;8.47;;;;;;;11.32;50.27;101478.00;5117434;28;20272;-69
2023/04/10 07:15:18;;;;;;;8.20;7.80;;;;;;;11.43;51.45;101476.34;5117042;28;20203;-69
2023/04/10 07:17:47;;;;;;;8.67;8.27;;;;;;;11.51;49.04;101483.91;5117041;28;20195;-69
2023/04/10 07:20:13;;;;;;;8.03;7.73;;;;;;;11.52;49.37;101476.72;5116767;28;20523;-69
2023/04/10 07:22:39;;;;;;;9.50;8.17;;;;;;;11.55;49.08;101465.81;5116959;28;20181;-69
2023/04/10 07:25:07;;;;;;;8.17;7.80;;;;;;;11.58;48.01;101469.13;5116579;28;20208;-69
2023/04/10 07:27:33;;;;;;;7.53;7.23;;;;;;;11.65;48.28;101462.41;5116488;28;20199;-69
2023/04/10 07:29:59;;;;;;;8.60;8.33;;;;;;;11.77;47.02;101462.59;5116725;28;20212;-69
2023/04/10 07:32:26;;;;;;;8.53;8.23;;;;;;;11.87;46.01;101456.53;5117378;28;20204;-69
2023/04/10 07:34:52;;;;;;;8.03;7.73;;;;;;;11.92;45.62;101456.25;5116680;28;20572;-69
2023/04/10 07:37:19;;;;;;;7.90;7.63;;;;;;;12.02;46.12;101446.66;5116498;28;20207;-69
2023/04/10 07:39:46;;;;;;;9.23;8.73;;;;;;;12.10;45.91;101435.38;5116699;28;20665;-69
2023/04/10 07:42:12;;;;;;;9.17;8.33;;;;;;;12.18;47.32;101437.56;5117295;28;20268;-69
2023/04/10 07:44:39;;;;;;;10.03;7.93;;;;;;;12.31;45.70;101436.63;5116533;28;20205;-69
2023/04/10 07:47:05;;;;;;;7.50;7.10;;;;;;;12.38;45.27;101433.50;5116307;28;20655;-69
2023/04/10 07:49:31;;;;;;;8.67;8.10;;;;;;;12.39;43.79;101436.09;5116188;28;20219;-69
2023/04/10 07:51:58;;;;;;;8.20;7.53;;;;;;;12.35;44.17;101437.25;5117125;28;20193;-70
2023/04/10 07:54:24;;;;;;;7.80;7.60;;;;;;;12.37;45.50;101432.66;5116093;28;20288;-70
2023/04/10 07:56:52;;;;;;;7.33;7.13;;;;;;;12.40;46.24;101419.00;5115128;28;20647;-69
2023/04/10 07:59:18;;;;;;;7.57;7.03;;;;;;;12.43;44.58;101417.97;5116424;28;20185;-69
2023/04/10 08:01:44;;;;;;;7.90;7.50;;;;;;;12.41;44.79;101406.47;5116714;28;20196;-70
2023/04/10 08:04:11;;;;;;;8.47;8.07;;;;;;;12.50;44.87;101405.84;5116255;28;20379;-69
2023/04/10 08:06:37;;;;;;;8.07;7.67;;;;;;;12.57;45.00;101417.88;5116704;28;20212;-69
2023/04/10 08:09:04;;;;;;;8.03;7.73;;;;;;;12.69;43.41;101408.06;5117592;28;20183;-70
2023/04/10 08:11:34;;;;;;;7.23;7.03;;;;;;;12.93;43.62;101408.19;5121753;28;20189;-69
2023/04/10 08:14:04;;;;;;;7.17;7.00;;;;;;;13.22;44.20;101402.53;5119504;28;20567;-68
2023/04/10 08:16:33;;;;;;;6.67;6.40;;;;;;;13.43;43.72;101392.09;5118221;28;20228;-69
2023/04/10 08:19:01;;;;;;;6.87;6.70;;;;;;;13.64;42.12;101386.97;5115938;28;20621;-70
2023/04/10 08:21:28;;;;;;;8.73;8.40;;;;;;;13.79;41.96;101385.81;5115629;28;20181;-70
2023/04/10 08:23:57;;;;;;;7.80;7.40;;;;;;;13.85;40.96;101388.06;5115607;28;20358;-70
2023/04/10 08:26:25;;;;;;;7.43;6.87;;;;;;;14.02;41.85;101384.09;5115832;28;20189;-69
2023/04/10 08:28:52;;;;;;;7.27;7.07;;;;;;;14.01;39.79;101391.31;5115944;28;20276;-69
2023/04/10 08:31:22;;;;;;;5.73;5.73;;;;;;;13.91;41.06;101378.66;5115470;28;20201;-69
2023/04/10 08:33:49;;;;;;;6.80;6.70;;;;;;;14.11;41.67;101374.47;5115666;28;20236;-69
2023/04/10 08:36:15;;;;;;;6.63;6.53;;;;;;;14.24;40.36;101381.47;5115427;28;20189;-70
2023/04/10 08:38:46;;;;;;;5.60;5.50;;;;;;;14.40;39.76;101380.31;5115621;28;20177;-69
2023/04/10 08:41:14;;;;;;;6.30;6.20;;;;;;;14.54;38.44;101365.78;5115488;28;20264;-70
2023/04/10 08:43:42;;;;;;;6.80;6.70;;;;;;;14.55;39.68;101371.03;5097434;28;20223;-69
2023/04/10 08:46:08;;;;;;;6.13;5.93;;;;;;;14.55;38.78;101362.94;5115198;28;20216;-69
2023/04/10 08:48:57;;;;;;;5.43;5.33;;;;;;;14.63;39.75;101351.59;5115613;28;20268;-69
2023/04/10 08:51:30;;;;;;;7.17;6.97;;;;;;;14.51;37.43;101355.19;5115285;28;20201;-70
2023/04/10 08:54:05;;;;;;;5.30;5.20;;;;;;;14.60;37.45;101359.91;5115033;28;20581;-70
2023/04/10 08:56:35;;;;;;;5.53;5.43;;;;;;;14.43;36.90;101358.50;5115482;28;20169;-70
2023/04/10 08:59:02;;;;;;;5.30;5.17;;;;;;;14.43;36.69;101351.25;5115169;28;20585;-70
2023/04/10 09:01:29;;;;;;;4.97;4.87;;;;;;;14.43;37.77;101350.41;5114750;28;20184;-69
2023/04/10 09:03:56;;;;;;;5.23;5.13;;;;;;;14.55;37.30;101352.16;5115287;28;20205;-70
2023/04/10 09:06:23;;;;;;;5.70;5.27;;;;;;;14.38;36.93;101320.25;5114719;28;20197;-69
2023/04/10 09:08:50;;;;;;;5.87;5.57;;;;;;;14.50;38.57;101330.06;5114487;28;20181;-70
2023/04/10 09:11:16;;;;;;;4.90;4.80;;;;;;;14.63;36.92;101327.31;5114568;28;20205;-70
2023/04/10 09:13:43;;;;;;;9.90;9.40;;;;;;;14.63;38.05;101327.31;5114573;28;20213;-69
2023/04/10 09:16:10;;;;;;;5.20;4.97;;;;;;;14.69;37.26;101326.81;5115102;28;20644;-69
2023/04/10 09:18:42;;;;;;;5.07;5.07;;;;;;;14.76;37.46;101336.13;5114505;28;20217;-70
2023/04/10 09:21:16;;;;;;;4.77;4.67;;;;;;;14.78;37.04;101319.84;5114477;28;20271;-69
2023/04/10 09:23:46;;;;;;;4.90;4.80;;;;;;;14.73;36.56;101324.75;5114587;28;20208;-69
2023/04/10 09:26:27;;;;;;;5.33;5.13;;;;;;;15.00;37.42;101322.50;5114498;28;20285;-69
2023/04/10 09:29:04;;;;;;;5.43;5.33;;;;;;;15.03;36.59;101326.81;5114949;28;20183;-69
2023/04/10 09:31:33;;;;;;;5.67;5.57;;;;;;;15.11;37.35;101329.75;5114937;28;20192;-69
2023/04/10 09:34:23;;;;;;;4.93;4.93;;;;;;;15.14;37.47;101334.03;5114504;28;20193;-69
2023/04/10 09:37:00;;;;;;;5.57;5.47;;;;;;;15.24;38.72;101329.59;5114779;28;20183;-69
2023/04/10 09:39:41;;;;;;;4.70;4.60;;;;;;;15.26;36.31;101333.88;5114469;28;20179;-69
2023/04/10 09:42:10;;;;;;;6.60;4.77;;;;;;;15.47;36.66;101330.41;5114492;28;20177;-70
2023/04/10 09:44:38;;;;;;;10.20;4.83;;;;;;;15.64;37.92;101329.00;5114092;28;20209;-69
2023/04/10 09:47:13;;;;;;;14.77;13.50;;;;;;;15.70;36.39;101325.81;5114248;28;20185;-69
2023/04/10 09:49:54;;;;;;;4.87;4.77;;;;;;;15.66;36.34;101311.69;5114242;28;20252;-69
2023/04/10 09:52:27;;;;;;;5.13;4.73;;;;;;;15.36;35.63;101300.75;5114384;28;20165;-70
2023/04/10 09:54:55;;;;;;;4.63;4.43;;;;;;;15.45;36.64;101299.97;5114119;28;20201;-70
2023/04/10 09:57:23;;;;;;;4.83;4.73;;;;;;;15.32;36.41;101301.00;5095778;28;20627;-69
2023/04/10 09:59:55;;;;;;;4.93;4.93;;;;;;;15.47;37.80;101300.72;5113972;28;20186;-70
2023/04/10 10:02:23;;;;;;;5.03;5.03;;;;;;;15.54;36.53;101307.31;5113986;28;20194;-74
2023/04/10 10:04:51;;;;;;;5.13;5.03;;;;;;;15.70;37.39;101293.41;5113776;28;20205;-70
2023/04/10 10:07:19;;;;;;;4.73;4.73;;;;;;;15.66;38.22;101298.19;5114139;28;20655;-70
2023/04/10 10:09:47;;;;;;;4.70;4.50;;;;;;;15.71;36.14;101290.59;5095735;28;20223;-70
2023/04/10 10:12:25;;;;;;;5.10;5.10;;;;;;;15.84;38.14;101284.13;5114069;28;20195;-70
2023/04/10 10:15:10;;;;;;;5.13;5.03;;;;;;;15.90;36.43;101286.31;5096009;28;20785;-70
2023/04/10 10:17:49;;;;;;;4.93;4.73;;;;;;;15.86;35.44;101276.75;5114024;28;20612;-70
2023/04/10 10:20:19;;;;;;;6.63;4.90;;;;;;;15.91;36.59;101272.66;5115133;28;20616;-69
2023/04/10 10:22:46;;;;;;;4.70;4.70;;;;;;;15.99;36.32;101269.31;5117941;28;20185;-69
2023/04/10 10:25:13;;;;;;;4.00;4.00;;;;;;;16.01;36.89;101261.06;5118172;28;20204;-70
2023/04/10 10:27:40;;;;;;;4.43;4.33;;;;;;;15.79;36.50;101257.50;5117968;28;20211;-69
2023/04/10 10:30:08;;;;;;;4.93;4.93;;;;;;;15.74;36.73;101244.41;5118042;28;20218;-70
2023/04/10 10:32:55;;;;;;;4.77;4.67;;;;;;;16.03;37.55;101245.59;5118014;28;20226;-70
2023/04/10 10:35:25;;;;;;;4.33;4.30;;;;;;;16.02;36.25;101243.84;5117925;28;20632;-69
2023/04/10 10:37:57;;;;;;;4.00;4.00;;;;;;;16.32;36.18;101240.34;5117743;28;20177;-70
2023/04/10 10:40:31;;;;;;;4.00;4.00;;;;;;;16.29;33.99;101227.94;5117754;28;20257;-70
2023/04/10 10:43:27;;;;;;;4.57;4.47;;;;;;;16.49;36.75;101226.19;5100357;28;20189;-70
2023/04/10 10:45:57;;;;;;;4.63;4.63;;;;;;;16.34;34.92;101224.84;5101998;28;20201;-69
2023/04/10 10:48:23;;;;;;;5.10;5.00;;;;;;;16.27;35.69;101207.47;5117656;28;20185;-69
2023/04/10 10:50:55;;;;;;;4.40;4.40;;;;;;;16.37;35.23;101206.50;5117444;28;20212;-69
2023/04/10 10:53:37;;;;;;;5.33;4.40;;;;;;;16.24;34.14;101197.78;5117716;28;20177;-70
2023/04/10 10:56:19;;;;;;;5.10;5.00;;;;;;;16.61;34.77;101196.34;5117789;28;20173;-70
2023/04/10 10:58:46;;;;;;;4.17;4.17;;;;;;;16.90;34.01;101191.88;5118989;28;20256;-69
2023/04/10 11:01:13;;;;;;;4.33;4.33;;;;;;;16.94;33.27;101192.47;5118731;28;20185;-69
2023/04/10 11:03:40;;;;;;;4.30;4.30;;;;;;;16.69;31.98;101183.84;5117877;28;20215;-69
2023/04/10 11:06:08;;;;;;;4.00;4.00;;;;;;;16.66;33.28;101177.84;5117269;28;20188;-69
2023/04/10 11:08:42;;;;;;;4.00;3.90;;;;;;;16.43;33.39;101167.25;5117923;28;20177;-69
2023/04/10 11:11:22;;;;;;;4.43;4.43;;;;;;;16.47;31.99;101166.00;5117914;28;20202;-69
2023/04/10 11:13:57;;;;;;;3.80;3.80;;;;;;;16.52;33.45;101158.31;5117868;28;20208;-69
2023/04/10 11:16:42;;;;;;;3.83;3.83;;;;;;;16.69;34.47;101162.22;5098793;28;20564;-69
2023/04/10 11:19:12;;;;;;;3.73;3.60;;;;;;;16.66;31.20;101143.53;5099548;28;20695;-69
2023/04/10 11:22:03;;;;;;;3.27;3.27;;;;;;;16.58;30.35;101144.22;5117538;28;20178;-70
2023/04/10 11:24:57;;;;;;;3.23;3.23;;;;;;;16.63;32.34;101135.69;5117440;28;20213;-69
2023/04/10 11:27:45;;;;;;;3.17;3.17;;;;;;;16.77;31.07;101138.00;5118345;28;20197;-69
2023/04/10 11:30:31;;;;;;;3.77;3.77;;;;;;;16.90;30.27;101128.78;5119647;28;20193;-69
2023/04/10 11:32:59;;;;;;;3.50;3.43;;;;;;;17.16;32.08;101127.22;5117774;28;20193;-70
2023/04/10 11:35:30;;;;;;;4.30;4.07;;;;;;;17.30;31.05;101131.34;5099050;28;20205;-69
2023/04/10 11:38:11;;;;;;;4.83;4.70;;;;;;;17.18;31.65;101119.81;5117230;28;20169;-69
2023/04/10 11:41:03;;;;;;;5.40;5.10;;;;;;;17.05;30.35;101131.91;5116569;28;20620;-70
2023/04/10 11:43:31;;;;;;;3.90;3.90;;;;;;;16.89;30.00;101125.22;5116387;28;20261;-69
2023/04/10 11:45:59;;;;;;;3.03;2.93;;;;;;;16.90;30.33;101116.09;5116379;28;20181;-70